Arlington, Washington
Current Conditions -  °F | °C
As of 1:55 AM on Saturday 25 Oct 2014 (Local Time) from KAWO Reporting Station
Overcast Overcast  
Wind Chill: 50°   Ceiling: 7500
Heat Index: 50°   Visibility: 10mi
Dew Point: 45°   Wind: 3mph
Humidity: 82%   Direction: 360°N
Pressure: 29.7"   Gusts: NA
Location:  48.2°N, 122.13°W
Report Text: KAWO 250855Z AUTO 36003KT 10SM OVC075 10/07 A2970 RMK AO1 60001 57047
Loading
Personal Weather Stations






























Interactive Weather Map
Tropical Storm Tracking
New forecast layout! Learn more

10-Day Weather Forecast

Advertisements
Track Severe Weather on mobile